createdAt,value
2022-07-25T00:02:23.412Z,82.95
2022-07-25T00:04:53.462Z,82.93
2022-07-25T00:07:23.898Z,83.00
2022-07-25T00:09:53.885Z,83.04
2022-07-25T00:12:26.679Z,83.07
2022-07-25T00:15:00.069Z,83.00
2022-07-25T00:17:31.359Z,82.76
2022-07-25T00:20:04.654Z,82.75
2022-07-25T00:22:36.093Z,82.52
2022-07-25T00:25:08.500Z,82.70
2022-07-25T00:27:37.729Z,82.62
2022-07-25T00:30:10.712Z,82.58
2022-07-25T00:32:42.173Z,82.46
2022-07-25T00:35:15.184Z,82.33
2022-07-25T00:37:46.604Z,82.41
2022-07-25T00:40:18.646Z,82.32
2022-07-25T00:42:49.418Z,81.78
2022-07-25T00:45:20.313Z,81.82
2022-07-25T00:47:52.634Z,81.87
2022-07-25T00:50:23.008Z,81.85
2022-07-25T00:52:54.677Z,81.92
2022-07-25T00:55:26.518Z,82.07
2022-07-25T00:57:57.063Z,82.31
2022-07-25T01:00:27.475Z,82.34
2022-07-25T01:02:57.378Z,82.14
2022-07-25T01:05:28.065Z,82.26
2022-07-25T01:07:58.398Z,82.22
2022-07-25T01:10:31.776Z,82.22
2022-07-25T01:13:03.168Z,82.35
2022-07-25T01:15:35.049Z,82.42
2022-07-25T01:18:05.707Z,82.38
2022-07-25T01:20:36.313Z,82.45
2022-07-25T01:23:06.361Z,82.47
2022-07-25T01:25:38.139Z,82.51
2022-07-25T01:28:09.662Z,82.51
2022-07-25T01:30:42.249Z,82.55
2022-07-25T01:33:22.289Z,82.77
2022-07-25T01:35:53.094Z,82.65
2022-07-25T01:38:23.182Z,82.68
2022-07-25T01:40:53.792Z,82.73
2022-07-25T01:43:24.027Z,82.71
2022-07-25T01:45:54.852Z,82.64
2022-07-25T01:48:27.711Z,82.60
2022-07-25T01:50:58.741Z,82.60
2022-07-25T01:53:31.717Z,82.56
2022-07-25T01:56:03.857Z,82.60
2022-07-25T01:58:36.294Z,82.63
2022-07-25T02:01:07.750Z,82.52
2022-07-25T02:03:38.767Z,82.64
2022-07-25T02:06:09.113Z,82.14
2022-07-25T02:08:40.458Z,82.11
2022-07-25T02:11:12.272Z,82.22
2022-07-25T02:13:43.752Z,82.17
2022-07-25T02:16:15.799Z,82.02
2022-07-25T02:18:47.861Z,81.83
2022-07-25T02:21:20.134Z,81.79
2022-07-25T02:23:50.724Z,81.70
2022-07-25T02:26:21.166Z,81.54
2022-07-25T02:28:53.181Z,81.53
2022-07-25T02:31:24.422Z,81.36
2022-07-25T02:33:55.090Z,81.17
2022-07-25T02:36:25.430Z,81.09
2022-07-25T02:38:56.727Z,80.98
2022-07-25T02:41:28.126Z,81.10
2022-07-25T02:43:58.348Z,81.06
2022-07-25T02:46:29.734Z,80.95
2022-07-25T02:49:00.738Z,80.91
2022-07-25T02:51:30.760Z,80.69
2022-07-25T02:54:01.649Z,80.51
2022-07-25T02:56:33.394Z,80.51
2022-07-25T02:59:07.161Z,80.45
2022-07-25T03:01:38.403Z,80.61
2022-07-25T03:04:08.477Z,80.62
2022-07-25T03:06:40.127Z,80.58
2022-07-25T03:09:12.209Z,80.69
2022-07-25T03:11:43.597Z,80.76
2022-07-25T03:14:14.657Z,80.73
2022-07-25T03:16:46.755Z,80.62
2022-07-25T03:19:17.028Z,80.76
2022-07-25T03:21:47.746Z,80.59
2022-07-25T03:24:19.185Z,80.54
2022-07-25T03:26:50.337Z,80.60
2022-07-25T03:29:21.362Z,80.62
2022-07-25T03:31:53.623Z,80.66
2022-07-25T03:34:24.575Z,80.65
2022-07-25T03:36:55.784Z,80.68
2022-07-25T03:39:26.573Z,80.59
2022-07-25T03:41:57.693Z,80.46
2022-07-25T03:44:28.701Z,80.30
2022-07-25T03:46:59.244Z,80.24
2022-07-25T03:49:30.358Z,80.18
2022-07-25T03:52:02.137Z,80.19
2022-07-25T03:54:35.157Z,80.10
2022-07-25T03:57:06.332Z,80.08
2022-07-25T03:59:38.058Z,79.91
2022-07-25T04:02:11.893Z,79.64
2022-07-25T04:04:42.277Z,79.51
2022-07-25T04:07:14.220Z,79.35
2022-07-25T04:09:45.900Z,79.33
2022-07-25T04:12:19.400Z,79.27
2022-07-25T04:14:50.309Z,79.09
2022-07-25T04:17:21.755Z,79.17
2022-07-25T04:19:54.408Z,79.09
2022-07-25T04:22:26.254Z,79.04
2022-07-25T04:24:57.205Z,78.63
2022-07-25T04:27:28.199Z,78.57
2022-07-25T04:29:59.584Z,78.55
2022-07-25T04:32:31.338Z,78.57
2022-07-25T04:35:02.809Z,78.61
2022-07-25T04:37:36.032Z,78.43
2022-07-25T04:40:09.509Z,78.30
2022-07-25T04:42:40.719Z,78.04
2022-07-25T04:45:11.868Z,78.02
2022-07-25T04:47:42.648Z,77.89
2022-07-25T04:50:15.389Z,77.75
2022-07-25T04:52:47.662Z,77.69
2022-07-25T04:55:19.668Z,77.42
2022-07-25T04:57:50.785Z,77.36
2022-07-25T05:00:24.095Z,77.00
2022-07-25T05:02:54.417Z,76.68
2022-07-25T05:05:26.217Z,76.78
2022-07-25T05:08:00.339Z,76.78
2022-07-25T05:10:31.409Z,76.77
2022-07-25T05:13:02.591Z,76.49
2022-07-25T05:15:34.835Z,76.44
2022-07-25T05:18:06.635Z,76.28
2022-07-25T05:20:38.768Z,76.25
2022-07-25T05:23:11.329Z,76.26
2022-07-25T05:25:41.747Z,76.28
2022-07-25T05:28:17.183Z,76.02
2022-07-25T05:30:47.940Z,75.93
2022-07-25T05:33:19.747Z,75.78
2022-07-25T05:35:52.911Z,75.51
2022-07-25T05:38:26.785Z,75.66
2022-07-25T05:40:59.134Z,75.50
2022-07-25T05:43:30.964Z,75.32
2022-07-25T05:46:03.751Z,75.45
2022-07-25T05:48:34.963Z,75.15
2022-07-25T05:51:06.983Z,74.98
2022-07-25T05:53:38.946Z,74.61
2022-07-25T05:56:11.114Z,74.71
2022-07-25T05:58:42.482Z,74.72
2022-07-25T06:01:15.690Z,74.66
2022-07-25T06:03:46.290Z,74.82
2022-07-25T06:06:20.276Z,74.37
2022-07-25T06:08:50.561Z,74.07
2022-07-25T06:11:22.833Z,73.68
2022-07-25T06:13:53.509Z,73.47
2022-07-25T06:16:25.135Z,73.19
2022-07-25T06:18:56.214Z,73.26
2022-07-25T06:21:26.979Z,73.09
2022-07-25T06:23:58.577Z,72.89
2022-07-25T06:26:29.795Z,72.73
2022-07-25T06:29:02.550Z,73.01
2022-07-25T06:31:34.725Z,72.88
2022-07-25T06:34:05.236Z,72.47
2022-07-25T06:36:36.035Z,72.14
2022-07-25T06:39:07.668Z,72.00
2022-07-25T06:41:38.482Z,71.37
2022-07-25T06:44:10.094Z,71.35
2022-07-25T06:46:41.483Z,70.83
2022-07-25T06:49:14.132Z,70.87
2022-07-25T06:51:46.794Z,70.66
2022-07-25T06:54:19.039Z,70.85
2022-07-25T06:56:49.456Z,69.90
2022-07-25T06:59:19.727Z,69.54
2022-07-25T07:01:51.897Z,68.23
2022-07-25T07:04:25.994Z,66.73
2022-07-25T07:06:57.289Z,64.22
2022-07-25T07:09:28.785Z,64.28
2022-07-25T07:11:59.719Z,64.24
2022-07-25T07:14:30.712Z,63.45
2022-07-25T07:17:02.504Z,63.64
2022-07-25T07:19:33.830Z,61.46
2022-07-25T07:22:03.878Z,60.76
2022-07-25T07:24:33.997Z,59.14
2022-07-25T07:27:04.977Z,59.34
2022-07-25T07:29:35.669Z,58.09
2022-07-25T07:32:08.377Z,57.52
2022-07-25T07:34:42.247Z,56.95
2022-07-25T07:37:15.017Z,55.17
2022-07-25T07:39:46.914Z,54.91
2022-07-25T07:42:19.759Z,53.75
2022-07-25T07:44:51.066Z,53.17
2022-07-25T07:47:21.994Z,53.43
2022-07-25T07:49:53.115Z,52.14
2022-07-25T07:52:24.875Z,51.81
2022-07-25T07:55:14.130Z,49.72
2022-07-25T07:57:45.162Z,50.21
2022-07-25T08:00:17.805Z,50.00
2022-07-25T08:02:52.281Z,49.41
2022-07-25T08:05:28.130Z,50.07
2022-07-25T08:07:59.973Z,49.47
2022-07-25T08:10:32.330Z,49.69
2022-07-25T08:13:15.006Z,48.77
2022-07-25T08:15:46.214Z,49.35
2022-07-25T08:18:18.302Z,48.94
2022-07-25T08:20:50.926Z,48.38
2022-07-25T08:23:23.295Z,47.87
2022-07-25T08:25:56.550Z,48.60
2022-07-25T08:28:28.642Z,49.65
2022-07-25T08:30:59.757Z,50.17
2022-07-25T08:33:31.731Z,50.84
2022-07-25T08:36:04.374Z,51.09
2022-07-25T08:38:35.629Z,51.33
2022-07-25T08:41:11.537Z,51.49
2022-07-25T08:43:52.186Z,50.46
2022-07-25T08:46:23.793Z,50.85
2022-07-25T08:48:55.930Z,50.67
2022-07-25T08:51:28.170Z,51.23
2022-07-25T08:53:58.466Z,51.79
2022-07-25T08:56:28.957Z,52.25
2022-07-25T08:58:59.627Z,52.51
2022-07-25T09:01:34.758Z,52.20
2022-07-25T09:04:05.096Z,51.37
2022-07-25T09:06:36.696Z,51.48
2022-07-25T09:09:08.374Z,50.29
2022-07-25T09:11:40.753Z,49.16
2022-07-25T09:14:15.259Z,49.20
2022-07-25T09:16:48.478Z,48.97
2022-07-25T09:19:23.355Z,48.55
2022-07-25T09:22:05.340Z,48.33
2022-07-25T09:24:39.966Z,48.50
2022-07-25T09:27:12.868Z,48.58
2022-07-25T09:29:51.764Z,49.02
2022-07-25T09:32:25.380Z,49.12
2022-07-25T09:34:56.194Z,48.82
2022-07-25T09:37:27.564Z,48.87
2022-07-25T09:39:58.221Z,47.49
2022-07-25T09:42:33.110Z,47.32
2022-07-25T09:45:13.345Z,47.39
2022-07-25T09:48:05.141Z,47.51
2022-07-25T09:50:40.750Z,49.49
2022-07-25T09:53:16.492Z,50.27
2022-07-25T09:55:50.035Z,50.49
2022-07-25T09:58:20.235Z,50.11
2022-07-25T10:00:51.804Z,50.16
2022-07-25T10:03:53.701Z,50.17
2022-07-25T10:07:02.123Z,50.01
2022-07-25T10:09:46.265Z,49.82
2022-07-25T10:12:23.025Z,50.62
2022-07-25T10:15:14.263Z,50.49
2022-07-25T10:17:48.824Z,50.60
2022-07-25T10:20:23.603Z,50.00
2022-07-25T10:22:56.852Z,49.38
2022-07-25T10:25:28.771Z,49.46
2022-07-25T10:28:06.229Z,49.82
2022-07-25T10:30:40.135Z,50.28
2022-07-25T10:33:21.520Z,50.81
2022-07-25T10:35:52.765Z,49.88
2022-07-25T10:38:31.413Z,49.06
2022-07-25T10:41:05.945Z,48.50
2022-07-25T10:43:48.514Z,48.32
2022-07-25T10:46:23.821Z,48.04
2022-07-25T10:49:07.539Z,48.27
2022-07-25T10:51:41.875Z,48.51
2022-07-25T10:54:17.607Z,48.48
2022-07-25T10:56:58.271Z,48.35
2022-07-25T10:59:39.071Z,48.13
2022-07-25T11:02:13.911Z,48.19
2022-07-25T11:04:46.695Z,48.30
2022-07-25T11:07:20.597Z,48.12
2022-07-25T11:10:01.004Z,48.18
2022-07-25T11:12:33.004Z,47.79
2022-07-25T11:15:08.311Z,46.65
2022-07-25T11:17:39.473Z,46.34
2022-07-25T11:20:11.591Z,46.56
2022-07-25T11:22:42.575Z,46.27
2022-07-25T11:25:14.189Z,46.68
2022-07-25T11:27:43.998Z,46.78
2022-07-25T11:30:16.655Z,46.22
2022-07-25T11:32:54.139Z,45.39
2022-07-25T11:35:30.859Z,43.36
2022-07-25T11:38:04.485Z,43.97
2022-07-25T11:40:43.457Z,44.40
2022-07-25T11:43:24.010Z,44.49
2022-07-25T11:46:09.284Z,44.98
2022-07-25T11:48:40.414Z,45.52
2022-07-25T11:51:19.280Z,45.62
2022-07-25T11:53:50.831Z,45.68
2022-07-25T11:59:00.287Z,46.45
2022-07-25T12:01:37.567Z,46.64
2022-07-25T12:04:22.060Z,47.33
2022-07-25T12:06:51.575Z,47.68
2022-07-25T12:09:22.419Z,47.48
2022-07-25T12:11:52.137Z,47.82
2022-07-25T12:14:24.519Z,47.75
2022-07-25T12:16:55.876Z,47.72
2022-07-25T12:19:25.923Z,47.60
2022-07-25T12:21:55.980Z,47.43
2022-07-25T12:24:25.507Z,47.36
2022-07-25T12:26:55.220Z,46.64
2022-07-25T12:29:24.043Z,46.60
2022-07-25T12:31:54.343Z,45.92
2022-07-25T12:34:24.413Z,45.72
2022-07-25T12:36:53.943Z,46.13
2022-07-25T12:39:23.179Z,46.11
2022-07-25T12:41:52.413Z,45.64
2022-07-25T12:44:25.203Z,45.28
2022-07-25T12:46:54.815Z,45.32
2022-07-25T12:49:23.899Z,45.97
2022-07-25T12:51:58.089Z,46.06
2022-07-25T12:54:26.058Z,46.22
2022-07-25T12:56:56.033Z,45.85
2022-07-25T12:59:25.071Z,44.54
2022-07-25T13:01:55.464Z,44.13
2022-07-25T13:04:26.898Z,43.72
2022-07-25T13:06:57.752Z,43.61
2022-07-25T13:09:27.618Z,43.69
2022-07-25T13:11:58.159Z,44.08
2022-07-25T13:14:29.022Z,44.25
2022-07-25T13:16:58.253Z,44.11
2022-07-25T13:19:27.228Z,43.71
2022-07-25T13:21:56.736Z,43.87
2022-07-25T13:24:25.784Z,43.89
2022-07-25T13:26:55.861Z,43.76
2022-07-25T13:29:27.438Z,43.65
2022-07-25T13:31:58.768Z,43.78
2022-07-25T13:34:28.198Z,43.51
2022-07-25T13:36:58.230Z,43.48
2022-07-25T13:39:27.384Z,43.36
2022-07-25T13:41:56.685Z,43.54
2022-07-25T13:44:28.203Z,43.06
2022-07-25T13:46:58.542Z,43.05
2022-07-25T13:49:27.964Z,43.05
2022-07-25T13:51:57.216Z,43.21
2022-07-25T13:54:27.334Z,43.35
2022-07-25T13:56:57.123Z,43.74
2022-07-25T13:59:26.735Z,43.95
2022-07-25T14:01:57.063Z,44.28
2022-07-25T14:04:27.896Z,44.63
2022-07-25T14:06:57.765Z,44.77
2022-07-25T14:09:28.878Z,45.09
2022-07-25T14:11:59.586Z,45.84
2022-07-25T14:14:30.308Z,46.21
2022-07-25T14:16:59.390Z,46.42
2022-07-25T14:19:29.245Z,46.50
2022-07-25T14:22:00.132Z,46.64
2022-07-25T14:24:30.407Z,46.84
2022-07-25T14:26:59.395Z,46.76
2022-07-25T14:29:30.566Z,46.90
2022-07-25T14:32:00.058Z,47.06
2022-07-25T14:34:29.759Z,47.23
2022-07-25T14:36:58.603Z,47.09
2022-07-25T14:39:29.790Z,47.11
2022-07-25T14:41:59.276Z,47.06
2022-07-25T14:44:29.581Z,47.26
2022-07-25T14:47:00.637Z,47.54
2022-07-25T14:49:30.806Z,47.84
2022-07-25T14:52:00.829Z,47.76
2022-07-25T14:54:30.928Z,47.70
2022-07-25T14:57:00.562Z,47.52
2022-07-25T14:59:30.589Z,47.33
2022-07-25T15:01:59.998Z,47.29
2022-07-25T15:04:31.234Z,47.32
2022-07-25T15:07:00.844Z,47.30
2022-07-25T15:09:30.509Z,47.54
2022-07-25T15:12:00.066Z,47.94
2022-07-25T15:14:31.087Z,48.11
2022-07-25T15:17:01.658Z,48.06
2022-07-25T15:19:34.386Z,47.94
2022-07-25T15:22:03.435Z,48.28
2022-07-25T15:24:50.166Z,48.65
2022-07-25T15:27:04.335Z,48.56
2022-07-25T15:29:34.579Z,48.85
2022-07-25T15:32:05.410Z,48.68
2022-07-25T15:34:36.139Z,49.13
2022-07-25T15:37:05.352Z,49.40
2022-07-25T15:39:34.850Z,49.27
2022-07-25T15:42:04.806Z,49.43
2022-07-25T15:44:35.630Z,49.57
2022-07-25T15:47:06.739Z,49.84
2022-07-25T15:49:37.492Z,49.73
2022-07-25T15:52:07.737Z,49.44
2022-07-25T15:54:39.386Z,49.68
2022-07-25T15:57:09.790Z,49.92
2022-07-25T15:59:41.568Z,49.88
2022-07-25T16:02:13.070Z,49.84
2022-07-25T16:04:42.633Z,49.64
2022-07-25T16:07:12.242Z,49.59
2022-07-25T16:09:43.177Z,49.70
2022-07-25T16:12:12.459Z,49.06
2022-07-25T16:14:42.169Z,49.15
2022-07-25T16:17:12.156Z,48.91
2022-07-25T16:19:43.585Z,48.82
2022-07-25T16:22:12.680Z,49.06
2022-07-25T16:24:43.737Z,49.23
2022-07-25T16:27:14.613Z,49.44
2022-07-25T16:29:45.013Z,49.57
2022-07-25T16:32:14.958Z,49.45
2022-07-25T16:34:47.257Z,49.20
2022-07-25T16:37:17.331Z,49.25
2022-07-25T16:39:47.802Z,48.43
2022-07-25T16:42:18.569Z,48.06
2022-07-25T16:44:48.564Z,47.66
2022-07-25T16:47:18.500Z,47.58
2022-07-25T16:49:47.699Z,47.59
2022-07-25T16:52:18.445Z,47.79
2022-07-25T16:54:49.347Z,47.77
2022-07-25T16:57:20.045Z,47.46
2022-07-25T16:59:50.793Z,47.44
2022-07-25T17:02:26.355Z,47.87
2022-07-25T17:04:54.878Z,47.84
2022-07-25T17:07:25.722Z,47.89
2022-07-25T17:09:55.199Z,48.00
2022-07-25T17:12:26.233Z,48.22
2022-07-25T17:14:58.376Z,48.13
2022-07-25T17:17:30.281Z,48.29
2022-07-25T17:20:01.031Z,48.50
2022-07-25T17:22:30.589Z,48.63
2022-07-25T17:25:00.466Z,48.86
2022-07-25T17:27:30.299Z,48.96
2022-07-25T17:29:59.847Z,49.30
2022-07-25T17:32:30.876Z,49.25
2022-07-25T17:35:00.279Z,49.43
2022-07-25T17:37:30.533Z,49.68
2022-07-25T17:40:02.267Z,49.80
2022-07-25T17:42:32.656Z,49.80
2022-07-25T17:45:04.393Z,49.94
2022-07-25T17:47:36.371Z,50.16
2022-07-25T17:50:08.643Z,50.26
2022-07-25T17:52:38.075Z,50.45
2022-07-25T17:55:09.734Z,50.66
2022-07-25T17:57:44.071Z,50.71
2022-07-25T18:00:15.685Z,51.05
2022-07-25T18:02:46.032Z,51.19
2022-07-25T18:05:15.958Z,51.35
2022-07-25T18:07:49.686Z,51.44
2022-07-25T18:10:21.011Z,51.46
2022-07-25T18:12:50.548Z,51.48
2022-07-25T18:15:21.349Z,51.69
2022-07-25T18:17:52.987Z,51.86
2022-07-25T18:20:24.073Z,52.01
2022-07-25T18:22:54.659Z,52.10
2022-07-25T18:25:24.213Z,52.30
2022-07-25T18:27:54.316Z,52.46
2022-07-25T18:30:28.828Z,52.60
2022-07-25T18:32:56.555Z,52.83
2022-07-25T18:35:26.621Z,52.86
2022-07-25T18:37:58.405Z,52.92
2022-07-25T18:40:27.773Z,53.13
2022-07-25T18:42:59.505Z,53.03
2022-07-25T18:45:31.762Z,53.12
2022-07-25T18:48:01.881Z,53.31
2022-07-25T18:50:31.495Z,53.36
2022-07-25T18:53:01.213Z,53.46
2022-07-25T18:55:31.660Z,53.53
2022-07-25T18:58:02.957Z,53.64
2022-07-25T19:00:33.174Z,53.88
2022-07-25T19:03:02.615Z,54.04
2022-07-25T19:05:32.784Z,54.36
2022-07-25T19:08:03.842Z,54.53
2022-07-25T19:10:33.318Z,54.81
2022-07-25T19:13:05.348Z,55.23
2022-07-25T19:15:36.084Z,55.67
2022-07-25T19:18:06.191Z,56.10
2022-07-25T19:20:35.990Z,56.30
2022-07-25T19:23:05.468Z,56.54
2022-07-25T19:25:35.565Z,56.73
2022-07-25T19:28:05.934Z,56.90
2022-07-25T19:30:35.576Z,56.87
2022-07-25T19:33:05.794Z,57.21
2022-07-25T19:35:37.416Z,57.38
2022-07-25T19:38:07.378Z,57.80
2022-07-25T19:40:37.844Z,58.01
2022-07-25T19:43:09.185Z,57.79
2022-07-25T19:45:40.664Z,58.12
2022-07-25T19:48:11.535Z,58.06
2022-07-25T19:50:42.237Z,58.07
2022-07-25T19:53:12.301Z,57.97
2022-07-25T19:55:42.785Z,57.94
2022-07-25T19:58:13.693Z,58.24
2022-07-25T20:00:43.496Z,58.17
2022-07-25T20:03:12.760Z,58.63
2022-07-25T20:05:45.637Z,58.84
2022-07-25T20:08:15.377Z,58.77
2022-07-25T20:10:44.651Z,58.43
2022-07-25T20:13:14.619Z,58.25
2022-07-25T20:15:44.876Z,58.32
2022-07-25T20:18:19.462Z,58.34
2022-07-25T20:20:47.328Z,58.55
2022-07-25T20:23:17.027Z,58.41
2022-07-25T20:25:46.921Z,58.53
2022-07-25T20:28:18.350Z,58.68
2022-07-25T20:30:48.455Z,58.69
2022-07-25T20:33:18.198Z,58.74
2022-07-25T20:35:48.764Z,58.89
2022-07-25T20:38:18.821Z,59.00
2022-07-25T20:40:49.651Z,58.92
2022-07-25T20:43:19.369Z,59.06
2022-07-25T20:45:48.844Z,59.15
2022-07-25T20:48:19.069Z,59.23
2022-07-25T20:50:49.635Z,59.32
2022-07-25T20:53:20.084Z,59.38
2022-07-25T20:55:49.570Z,59.43
2022-07-25T20:58:19.686Z,59.42
2022-07-25T21:00:49.882Z,59.50
2022-07-25T21:03:21.309Z,59.63
2022-07-25T21:05:50.825Z,59.71
2022-07-25T21:08:19.983Z,59.86
2022-07-25T21:10:49.249Z,59.99
2022-07-25T21:13:20.011Z,60.10
2022-07-25T21:15:49.818Z,60.15
2022-07-25T21:18:21.957Z,60.30
2022-07-25T21:20:51.534Z,60.46
2022-07-25T21:23:21.259Z,60.47
2022-07-25T21:25:50.991Z,60.43
2022-07-25T21:28:21.750Z,60.25
2022-07-25T21:30:51.053Z,60.10
2022-07-25T21:33:21.564Z,60.07
2022-07-25T21:35:53.399Z,60.17
2022-07-25T21:38:26.361Z,59.98
2022-07-25T21:40:56.596Z,59.87
2022-07-25T21:43:26.694Z,59.90
2022-07-25T21:45:56.971Z,59.91
2022-07-25T21:48:44.982Z,60.05
2022-07-25T21:51:23.033Z,60.06
2022-07-25T21:53:47.622Z,60.06
2022-07-25T21:56:18.492Z,60.19
2022-07-25T21:58:48.773Z,60.20
2022-07-25T22:01:20.658Z,60.24
2022-07-25T22:03:52.297Z,60.20
2022-07-25T22:06:22.098Z,60.36
2022-07-25T22:08:55.201Z,60.49
2022-07-25T22:11:42.869Z,60.52
2022-07-25T22:13:57.755Z,60.63
2022-07-25T22:16:28.810Z,60.73
2022-07-25T22:18:57.676Z,60.87
2022-07-25T22:21:26.621Z,60.95
2022-07-25T22:23:56.978Z,61.03
2022-07-25T22:26:28.501Z,61.01
2022-07-25T22:28:57.864Z,61.05
2022-07-25T22:31:27.776Z,61.05
2022-07-25T22:33:57.209Z,61.14
2022-07-25T22:36:27.229Z,61.33
2022-07-25T22:38:57.499Z,61.48
2022-07-25T22:41:27.666Z,61.54
2022-07-25T22:43:59.950Z,61.67
2022-07-25T22:46:30.913Z,61.77
2022-07-25T22:49:01.745Z,62.00
2022-07-25T22:51:31.351Z,62.19
2022-07-25T22:54:01.608Z,62.35
2022-07-25T22:56:31.286Z,62.51
2022-07-25T22:59:00.962Z,62.63
2022-07-25T23:01:33.138Z,62.68
2022-07-25T23:04:02.804Z,62.51
2022-07-25T23:06:33.691Z,62.56
2022-07-25T23:09:05.777Z,62.57
2022-07-25T23:11:37.065Z,62.60
2022-07-25T23:14:08.885Z,62.69
2022-07-25T23:16:40.525Z,62.80
2022-07-25T23:19:10.268Z,62.85
2022-07-25T23:21:41.457Z,62.91
2022-07-25T23:24:11.157Z,63.14
2022-07-25T23:26:40.735Z,63.20
2022-07-25T23:29:11.973Z,63.35
2022-07-25T23:31:43.211Z,63.49
2022-07-25T23:34:12.408Z,63.65
2022-07-25T23:36:42.542Z,63.92
2022-07-25T23:39:14.952Z,64.04
2022-07-25T23:41:44.266Z,64.18
2022-07-25T23:44:18.139Z,64.43
2022-07-25T23:46:48.164Z,64.58
2022-07-25T23:49:17.781Z,64.68
2022-07-25T23:51:47.830Z,64.91
2022-07-25T23:54:18.212Z,65.10
2022-07-25T23:56:47.644Z,65.25
2022-07-25T23:59:19.080Z,65.27
